createdAt,value
2023-02-07T00:03:38.728Z,35.71
2023-02-07T00:08:45.370Z,42.85
2023-02-07T00:13:51.690Z,27.50
2023-02-07T00:19:00.137Z,22.50
2023-02-07T00:24:03.818Z,37.14
2023-02-07T00:29:15.687Z,37.14
2023-02-07T00:34:12.068Z,64.99
2023-02-07T00:39:18.457Z,32.50
2023-02-07T00:44:25.069Z,54.28
2023-02-07T00:49:31.256Z,69.99
2023-02-07T00:54:38.791Z,32.85
2023-02-07T00:59:44.829Z,24.28
2023-02-07T01:04:51.366Z,64.64
2023-02-07T01:09:57.544Z,45.35
2023-02-07T01:15:04.286Z,50.71
2023-02-07T01:20:10.614Z,54.28
2023-02-07T01:25:22.063Z,24.28
2023-02-07T01:30:18.207Z,40.71
2023-02-07T01:35:24.407Z,43.21
2023-02-07T01:40:32.054Z,25.71
2023-02-07T01:45:38.457Z,28.93
2023-02-07T01:50:45.455Z,40.35
2023-02-07T01:55:53.832Z,25.71
2023-02-07T02:01:00.636Z,21.07
2023-02-07T02:06:06.598Z,42.14
2023-02-07T02:11:14.254Z,23.57
2023-02-07T02:16:20.572Z,61.42
2023-02-07T02:21:29.021Z,22.50
2023-02-07T02:26:37.459Z,28.21
2023-02-07T02:31:43.865Z,38.21
2023-02-07T02:36:49.975Z,39.28
2023-02-07T02:41:56.612Z,36.78
2023-02-07T02:47:03.702Z,31.78
2023-02-07T02:52:11.373Z,31.43
2023-02-07T02:57:17.701Z,23.57
2023-02-07T03:02:24.162Z,35.35
2023-02-07T03:07:31.324Z,36.78
2023-02-07T03:12:37.915Z,31.07
2023-02-07T03:17:44.179Z,28.93
2023-02-07T03:22:53.101Z,28.57
2023-02-07T03:28:01.365Z,38.57
2023-02-07T03:33:08.961Z,41.42
2023-02-07T03:38:15.120Z,43.92
2023-02-07T03:43:21.879Z,34.28
2023-02-07T03:48:27.990Z,37.85
2023-02-07T03:53:34.375Z,35.71
2023-02-07T03:58:40.612Z,41.42
2023-02-07T04:03:46.986Z,38.92
2023-02-07T04:08:54.327Z,37.85
2023-02-07T04:14:00.818Z,21.07
2023-02-07T04:19:06.876Z,31.07
2023-02-07T04:24:13.764Z,38.57
2023-02-07T04:29:20.248Z,23.57
2023-02-07T04:34:31.682Z,37.50
2023-02-07T04:39:28.098Z,32.85
2023-02-07T04:44:34.238Z,33.21
2023-02-07T04:49:40.754Z,27.50
2023-02-07T04:54:47.958Z,21.07
2023-02-07T04:59:54.667Z,30.00
2023-02-07T05:05:02.025Z,64.28
2023-02-07T05:10:08.859Z,34.64
2023-02-07T05:15:14.938Z,35.71
2023-02-07T05:20:21.937Z,40.71
2023-02-07T05:25:27.993Z,28.57
2023-02-07T05:30:34.921Z,42.14
2023-02-07T05:35:41.070Z,32.50
2023-02-07T05:40:47.655Z,42.50
2023-02-07T05:45:53.848Z,56.78
2023-02-07T05:51:01.285Z,32.50
2023-02-07T05:56:07.325Z,51.78
2023-02-07T06:01:14.909Z,43.57
2023-02-07T06:06:21.152Z,42.14
2023-02-07T06:11:27.885Z,42.85
2023-02-07T06:16:34.009Z,37.50
2023-02-07T06:21:46.838Z,40.00
2023-02-07T06:26:48.369Z,30.71
2023-02-07T06:31:54.993Z,42.85
2023-02-07T06:37:01.280Z,41.78
2023-02-07T06:42:07.906Z,41.78
2023-02-07T06:47:14.274Z,36.42
2023-02-07T06:52:20.714Z,24.28
2023-02-07T06:57:27.853Z,35.00
2023-02-07T07:02:34.581Z,36.07
2023-02-07T07:07:40.798Z,42.50
2023-02-07T07:12:47.629Z,33.92
2023-02-07T07:17:53.989Z,38.57
2023-02-07T07:23:00.725Z,34.28
2023-02-07T07:28:07.238Z,31.43
2023-02-07T07:33:13.620Z,31.78
2023-02-07T07:38:19.843Z,33.21
2023-02-07T07:43:26.331Z,32.14
2023-02-07T07:48:32.662Z,45.71
2023-02-07T07:53:39.303Z,39.64
2023-02-07T07:58:45.546Z,38.92
2023-02-07T08:03:52.350Z,37.14
2023-02-07T08:08:59.554Z,41.42
2023-02-07T08:14:06.337Z,36.78
2023-02-07T08:19:12.415Z,45.35
2023-02-07T08:24:25.791Z,42.14
2023-02-07T08:29:23.229Z,79.99
2023-02-07T08:34:29.792Z,37.85
2023-02-07T08:39:36.011Z,28.93
2023-02-07T08:44:42.667Z,21.78
2023-02-07T08:49:48.901Z,34.64
2023-02-07T08:54:56.452Z,37.85
2023-02-07T09:00:04.827Z,27.85
2023-02-07T09:05:11.446Z,25.00
2023-02-07T09:10:17.792Z,31.43
2023-02-07T09:15:24.068Z,23.21
2023-02-07T09:20:31.171Z,23.93
2023-02-07T09:25:37.950Z,20.00
2023-02-07T09:30:44.217Z,27.85
2023-02-07T09:35:51.570Z,25.71
2023-02-07T09:40:58.925Z,21.43
2023-02-07T09:46:05.974Z,21.07
2023-02-07T09:51:12.386Z,23.21
2023-02-07T09:56:18.884Z,28.93
2023-02-07T10:01:26.172Z,39.64
2023-02-07T10:06:33.694Z,18.21
2023-02-07T10:11:40.800Z,30.71
2023-02-07T10:16:47.392Z,29.64
2023-02-07T10:21:53.594Z,10.36
2023-02-07T10:27:01.288Z,25.71
2023-02-07T10:32:07.480Z,19.28
2023-02-07T10:37:13.789Z,21.07
2023-02-07T10:42:20.030Z,18.57
2023-02-07T10:47:26.627Z,20.71
2023-02-07T10:52:32.972Z,19.64
2023-02-07T10:57:40.636Z,22.85
2023-02-07T11:02:45.112Z,20.71
2023-02-07T11:07:51.879Z,14.28
2023-02-07T11:12:59.310Z,1.07
2023-02-07T11:18:05.839Z,15.00
2023-02-07T11:23:11.971Z,8.93
2023-02-07T11:28:18.495Z,17.14
2023-02-07T11:33:24.730Z,23.21
2023-02-07T11:38:31.442Z,14.64
2023-02-07T11:43:37.528Z,18.57
2023-02-07T11:48:43.931Z,12.86
2023-02-07T11:53:52.331Z,17.50
2023-02-07T11:58:58.922Z,13.57
2023-02-07T12:04:06.045Z,0.00
2023-02-07T12:09:12.523Z,15.36
2023-02-07T12:14:18.808Z,20.71
2023-02-07T12:19:25.296Z,11.43
2023-02-07T12:24:31.555Z,21.07
2023-02-07T12:29:38.244Z,13.57
2023-02-07T12:34:45.758Z,13.57
2023-02-07T12:39:52.523Z,2.14
2023-02-07T12:44:58.685Z,21.07
2023-02-07T12:50:06.654Z,6.07
2023-02-07T12:55:13.084Z,6.43
2023-02-07T13:00:22.773Z,14.28
2023-02-07T13:05:30.166Z,12.50
2023-02-07T13:10:36.848Z,20.00
2023-02-07T13:15:43.288Z,0.00
2023-02-07T13:20:49.935Z,3.57
2023-02-07T13:25:56.125Z,12.50
2023-02-07T13:31:03.804Z,10.36
2023-02-07T13:36:09.408Z,2.86
2023-02-07T13:41:17.809Z,10.36
2023-02-07T13:46:27.128Z,5.36
2023-02-07T13:51:31.997Z,21.43
2023-02-07T13:56:38.532Z,11.07
2023-02-07T14:01:45.382Z,3.21
2023-02-07T14:06:51.691Z,21.07
2023-02-07T14:11:58.112Z,0.36
2023-02-07T14:17:04.328Z,3.21
2023-02-07T14:22:10.977Z,1.07
2023-02-07T14:27:17.300Z,9.28
2023-02-07T14:32:24.052Z,4.72
2023-02-07T14:37:30.190Z,6.43
2023-02-07T14:42:37.967Z,17.50
2023-02-07T14:47:44.137Z,18.57
2023-02-07T14:52:52.201Z,3.21
2023-02-07T14:57:58.301Z,10.00
2023-02-07T15:03:05.044Z,9.64
2023-02-07T15:08:10.684Z,1.79
2023-02-07T15:13:17.225Z,12.14
2023-02-07T15:18:23.351Z,0.71
2023-02-07T15:23:30.099Z,11.43
2023-02-07T15:28:36.533Z,4.29
2023-02-07T15:33:42.729Z,13.93
2023-02-07T15:38:49.137Z,6.43
2023-02-07T15:43:56.932Z,20.35
2023-02-07T15:49:03.062Z,5.36
2023-02-07T15:54:10.087Z,1.43
2023-02-07T15:59:36.229Z,6.07
2023-02-07T16:04:22.676Z,3.57
2023-02-07T16:09:28.927Z,7.86
2023-02-07T16:14:35.672Z,19.28
2023-02-07T16:19:42.186Z,3.57
2023-02-07T16:24:48.693Z,3.93
2023-02-07T16:29:55.802Z,3.93
2023-02-07T16:35:04.416Z,21.43
2023-02-07T16:40:10.466Z,16.07
2023-02-07T16:45:18.137Z,20.35
2023-02-07T16:50:24.530Z,18.57
2023-02-07T16:55:32.346Z,18.93
2023-02-07T17:00:39.579Z,20.00
2023-02-07T17:05:45.717Z,16.78
2023-02-07T17:10:53.176Z,20.00
2023-02-07T17:15:59.480Z,20.35
2023-02-07T17:21:05.496Z,26.07
2023-02-07T17:26:12.156Z,21.07
2023-02-07T17:31:19.268Z,23.57
2023-02-07T17:36:25.197Z,21.43
2023-02-07T17:41:32.344Z,20.35
2023-02-07T17:46:38.781Z,26.43
2023-02-07T17:51:46.130Z,24.64
2023-02-07T17:56:53.383Z,24.64
2023-02-07T18:01:58.550Z,21.07
2023-02-07T18:07:06.209Z,22.50
2023-02-07T18:12:12.957Z,21.07
2023-02-07T18:17:19.468Z,29.28
2023-02-07T18:22:25.739Z,27.14
2023-02-07T18:27:32.564Z,25.71
2023-02-07T18:32:38.726Z,11.78
2023-02-07T18:37:45.089Z,21.43
2023-02-07T18:42:51.213Z,24.64
2023-02-07T18:47:57.888Z,39.28
2023-02-07T18:53:03.855Z,21.07
2023-02-07T18:58:11.698Z,30.71
2023-02-07T19:03:17.833Z,29.64
2023-02-07T19:08:25.460Z,21.07
2023-02-07T19:13:32.512Z,34.28
2023-02-07T19:18:39.615Z,21.07
2023-02-07T19:23:45.773Z,28.93
2023-02-07T19:28:52.090Z,21.07
2023-02-07T19:34:00.542Z,22.14
2023-02-07T19:39:07.102Z,29.64
2023-02-07T19:44:13.336Z,21.07
2023-02-07T19:49:19.599Z,33.21
2023-02-07T19:54:25.847Z,34.28
2023-02-07T19:59:32.308Z,21.07
2023-02-07T20:04:38.456Z,32.85
2023-02-07T20:09:44.839Z,32.50
2023-02-07T20:14:51.133Z,25.00
2023-02-07T20:19:57.754Z,36.42
2023-02-07T20:25:03.874Z,26.78
2023-02-07T20:30:11.891Z,20.71
2023-02-07T20:35:20.152Z,21.07
2023-02-07T20:40:27.805Z,30.71
2023-02-07T20:45:35.146Z,28.93
2023-02-07T20:50:44.156Z,36.42
2023-02-07T20:55:50.607Z,26.78
2023-02-07T21:00:56.928Z,28.21
2023-02-07T21:06:02.940Z,69.28
2023-02-07T21:11:09.114Z,27.85
2023-02-07T21:16:15.279Z,41.42
2023-02-07T21:21:21.752Z,24.64
2023-02-07T21:26:27.882Z,40.71
2023-02-07T21:31:35.878Z,30.35
2023-02-07T21:36:41.366Z,42.14
2023-02-07T21:41:47.754Z,36.07
2023-02-07T21:46:55.673Z,36.42
2023-02-07T21:52:02.411Z,57.14
2023-02-07T21:57:08.765Z,37.50
2023-02-07T22:02:15.316Z,48.92
2023-02-07T22:07:22.415Z,45.71
2023-02-07T22:12:30.047Z,46.78
2023-02-07T22:17:36.174Z,37.14
2023-02-07T22:22:42.901Z,32.85
2023-02-07T22:27:50.054Z,40.35
2023-02-07T22:32:56.353Z,36.42
2023-02-07T22:38:02.572Z,32.14
2023-02-07T22:43:09.579Z,65.71
2023-02-07T22:48:15.780Z,41.08
2023-02-07T22:53:22.060Z,39.64
2023-02-07T22:58:28.380Z,45.35
2023-02-07T23:03:34.752Z,35.35
2023-02-07T23:08:41.931Z,32.85
2023-02-07T23:13:48.552Z,48.21
2023-02-07T23:18:55.590Z,64.99
2023-02-07T23:24:02.240Z,35.35
2023-02-07T23:29:09.380Z,35.71
2023-02-07T23:34:16.118Z,36.42
2023-02-07T23:39:22.190Z,29.64
2023-02-07T23:44:28.569Z,30.71
2023-02-07T23:49:34.833Z,34.28
2023-02-07T23:54:41.501Z,28.57
2023-02-07T23:59:47.728Z,46.78
